createdAt,value
2019-03-24T00:02:04.105Z,5.84
2019-03-24T00:04:34.599Z,5.80
2019-03-24T00:07:05.414Z,5.76
2019-03-24T00:09:35.924Z,5.76
2019-03-24T00:12:06.511Z,5.74
2019-03-24T00:14:37.178Z,5.76
2019-03-24T00:17:07.632Z,5.77
2019-03-24T00:19:38.045Z,5.77
2019-03-24T00:22:08.507Z,5.77
2019-03-24T00:24:39.039Z,5.76
2019-03-24T00:27:09.513Z,5.79
2019-03-24T00:29:39.958Z,5.78
2019-03-24T00:32:10.455Z,5.78
2019-03-24T00:34:40.980Z,5.75
2019-03-24T00:37:11.488Z,5.73
2019-03-24T00:39:42.226Z,5.71
2019-03-24T00:42:12.699Z,5.64
2019-03-24T00:44:43.449Z,5.62
2019-03-24T00:47:13.784Z,5.57
2019-03-24T00:49:44.321Z,5.59
2019-03-24T00:52:14.843Z,5.60
2019-03-24T00:54:45.370Z,5.62
2019-03-24T00:57:15.866Z,5.59
2019-03-24T00:59:46.388Z,5.54
2019-03-24T01:02:16.840Z,5.54
2019-03-24T01:04:47.612Z,5.52
2019-03-24T01:07:17.935Z,5.51
2019-03-24T01:09:49.201Z,5.50
2019-03-24T01:12:19.667Z,5.49
2019-03-24T01:14:50.017Z,5.53
2019-03-24T01:17:20.331Z,5.52
2019-03-24T01:19:50.803Z,5.51
2019-03-24T01:22:21.270Z,5.50
2019-03-24T01:24:51.812Z,5.46
2019-03-24T01:27:22.193Z,5.44
2019-03-24T01:29:53.163Z,5.45
2019-03-24T01:32:23.561Z,5.43
2019-03-24T01:34:54.037Z,5.44
2019-03-24T01:37:24.582Z,5.41
2019-03-24T01:39:55.083Z,5.37
2019-03-24T01:42:25.479Z,5.34
2019-03-24T01:44:55.948Z,5.29
2019-03-24T01:47:26.442Z,5.27
2019-03-24T01:49:56.897Z,5.22
2019-03-24T01:52:27.245Z,5.21
2019-03-24T01:54:57.763Z,5.21
2019-03-24T01:57:29.764Z,5.20
2019-03-24T02:00:00.320Z,5.17
2019-03-24T02:02:30.817Z,5.18
2019-03-24T02:05:01.408Z,5.12
2019-03-24T02:07:33.070Z,5.08
2019-03-24T02:10:03.756Z,5.02
2019-03-24T02:12:34.139Z,4.99
2019-03-24T02:15:06.031Z,5.03
2019-03-24T02:17:36.512Z,5.03
2019-03-24T02:20:07.064Z,5.02
2019-03-24T02:22:37.569Z,5.01
2019-03-24T02:25:08.558Z,4.96
2019-03-24T02:27:39.020Z,4.92
2019-03-24T02:30:10.175Z,4.89
2019-03-24T02:32:40.766Z,4.84
2019-03-24T02:35:11.565Z,4.82
2019-03-24T02:37:42.328Z,4.81
2019-03-24T02:40:12.891Z,4.78
2019-03-24T02:42:43.196Z,4.82
2019-03-24T02:45:13.925Z,4.86
2019-03-24T02:47:44.517Z,4.88
2019-03-24T02:50:15.073Z,4.89
2019-03-24T02:52:47.922Z,4.88
2019-03-24T02:55:18.486Z,4.88
2019-03-24T02:57:48.944Z,4.88
2019-03-24T03:00:19.881Z,4.87
2019-03-24T03:02:50.594Z,4.84
2019-03-24T03:05:21.087Z,4.87
2019-03-24T03:07:51.390Z,4.87
2019-03-24T03:10:21.837Z,4.84
2019-03-24T03:12:52.121Z,4.84
2019-03-24T03:15:22.443Z,4.85
2019-03-24T03:17:52.907Z,4.87
2019-03-24T03:20:23.365Z,4.89
2019-03-24T03:22:53.744Z,4.93
2019-03-24T03:25:24.055Z,4.93
2019-03-24T03:27:54.400Z,4.93
2019-03-24T03:30:24.737Z,4.91
2019-03-24T03:32:55.415Z,4.89
2019-03-24T03:35:25.894Z,4.90
2019-03-24T03:37:56.480Z,4.88
2019-03-24T03:40:26.925Z,4.88
2019-03-24T03:42:57.273Z,4.94
2019-03-24T03:45:29.158Z,4.85
2019-03-24T03:47:59.473Z,5.10
2019-03-24T03:50:30.056Z,5.19
2019-03-24T03:53:00.463Z,5.28
2019-03-24T03:55:31.158Z,5.28
2019-03-24T03:58:01.600Z,5.40
2019-03-24T04:00:36.192Z,5.42
2019-03-24T04:03:06.537Z,5.27
2019-03-24T04:05:36.856Z,5.00
2019-03-24T04:08:07.462Z,5.00
2019-03-24T04:10:37.769Z,4.89
2019-03-24T04:13:08.143Z,4.84
2019-03-24T04:15:38.517Z,4.68
2019-03-24T04:18:09.100Z,4.68
2019-03-24T04:20:39.713Z,4.63
2019-03-24T04:23:10.084Z,4.63
2019-03-24T04:25:40.843Z,4.61
2019-03-24T04:28:11.503Z,4.78
2019-03-24T04:30:41.983Z,4.78
2019-03-24T04:33:12.296Z,4.78
2019-03-24T04:35:42.932Z,4.77
2019-03-24T04:38:13.252Z,4.84
2019-03-24T04:40:43.565Z,4.78
2019-03-24T04:43:13.946Z,4.70
2019-03-24T04:45:44.722Z,4.69
2019-03-24T04:48:15.081Z,4.59
2019-03-24T04:50:45.491Z,4.41
2019-03-24T04:53:15.840Z,4.41
2019-03-24T04:55:46.446Z,4.24
2019-03-24T04:58:16.930Z,4.24
2019-03-24T05:00:47.376Z,4.18
2019-03-24T05:03:17.933Z,4.15
2019-03-24T05:05:49.133Z,4.19
2019-03-24T05:08:20.133Z,4.05
2019-03-24T05:10:50.463Z,4.05
2019-03-24T05:13:21.276Z,4.00
2019-03-24T05:15:51.655Z,3.95
2019-03-24T05:18:22.584Z,4.03
2019-03-24T05:20:52.865Z,4.03
2019-03-24T05:23:23.494Z,4.21
2019-03-24T05:25:53.991Z,4.18
2019-03-24T05:28:24.931Z,4.15
2019-03-24T05:30:55.180Z,4.18
2019-03-24T05:33:25.509Z,4.18
2019-03-24T05:35:57.181Z,4.18
2019-03-24T05:38:27.942Z,4.21
2019-03-24T05:40:58.238Z,4.28
2019-03-24T05:43:28.720Z,4.28
2019-03-24T05:45:58.992Z,4.25
2019-03-24T05:48:29.335Z,4.33
2019-03-24T05:50:59.691Z,4.33
2019-03-24T05:53:30.858Z,4.43
2019-03-24T05:56:01.577Z,4.37
2019-03-24T05:58:32.317Z,4.43
2019-03-24T06:01:02.767Z,4.61
2019-03-24T06:03:33.078Z,4.67
2019-03-24T06:06:03.712Z,4.84
2019-03-24T06:08:35.775Z,5.04
2019-03-24T06:11:07.732Z,5.09
2019-03-24T06:13:38.177Z,5.42
2019-03-24T06:16:08.553Z,5.53
2019-03-24T06:18:39.942Z,5.39
2019-03-24T06:21:10.234Z,5.51
2019-03-24T06:23:40.693Z,5.17
2019-03-24T06:26:11.231Z,5.17
2019-03-24T06:28:42.437Z,5.09
2019-03-24T06:31:12.932Z,5.29
2019-03-24T06:33:43.413Z,5.71
2019-03-24T06:36:13.763Z,6.08
2019-03-24T06:38:44.152Z,6.12
2019-03-24T06:41:14.529Z,6.12
2019-03-24T06:43:45.205Z,6.25
2019-03-24T06:46:15.791Z,6.38
2019-03-24T06:48:46.482Z,6.51
2019-03-24T06:51:17.120Z,6.35
2019-03-24T06:53:47.836Z,6.11
2019-03-24T06:56:18.394Z,6.00
2019-03-24T06:58:48.847Z,6.12
2019-03-24T07:01:20.881Z,6.14
2019-03-24T07:03:51.206Z,5.88
2019-03-24T07:06:21.571Z,5.94
2019-03-24T07:08:51.985Z,5.87
2019-03-24T07:11:23.047Z,5.96
2019-03-24T07:13:53.325Z,5.88
2019-03-24T07:16:24.058Z,5.84
2019-03-24T07:18:54.626Z,5.94
2019-03-24T07:21:25.053Z,6.18
2019-03-24T07:23:55.956Z,6.35
2019-03-24T07:26:26.568Z,6.32
2019-03-24T07:28:56.854Z,6.26
2019-03-24T07:31:27.232Z,6.53
2019-03-24T07:33:57.604Z,6.80
2019-03-24T07:36:27.927Z,7.09
2019-03-24T07:38:58.540Z,7.25
2019-03-24T07:41:29.024Z,7.00
2019-03-24T07:43:59.455Z,6.80
2019-03-24T07:46:30.109Z,6.65
2019-03-24T07:49:00.454Z,6.74
2019-03-24T07:51:30.733Z,6.90
2019-03-24T07:54:01.154Z,6.93
2019-03-24T07:56:31.511Z,6.84
2019-03-24T08:04:54.417Z,6.55
2019-03-24T08:07:24.914Z,6.54
2019-03-24T08:09:57.910Z,6.50
2019-03-24T08:12:28.702Z,6.44
2019-03-24T08:15:00.068Z,6.43
2019-03-24T08:17:30.604Z,6.46
2019-03-24T08:20:12.512Z,6.82
2019-03-24T08:22:43.010Z,6.86
2019-03-24T08:25:13.560Z,6.77
2019-03-24T08:27:44.006Z,6.63
2019-03-24T08:30:16.082Z,6.82
2019-03-24T08:32:46.573Z,6.88
2019-03-24T08:35:17.331Z,7.02
2019-03-24T08:37:47.941Z,7.24
2019-03-24T08:40:18.882Z,7.26
2019-03-24T08:42:49.369Z,7.39
2019-03-24T08:45:28.092Z,7.57
2019-03-24T08:47:59.112Z,7.66
2019-03-24T08:50:29.920Z,7.63
2019-03-24T08:53:00.360Z,7.65
2019-03-24T08:55:32.571Z,7.92
2019-03-24T08:58:03.414Z,8.27
2019-03-24T09:00:34.456Z,8.44
2019-03-24T09:03:05.225Z,8.46
2019-03-24T09:05:35.792Z,8.46
2019-03-24T09:08:06.439Z,8.37
2019-03-24T09:10:36.991Z,8.04
2019-03-24T09:13:07.495Z,8.12
2019-03-24T09:15:38.167Z,8.32
2019-03-24T09:18:08.588Z,8.13
2019-03-24T09:20:41.811Z,8.08
2019-03-24T09:23:11.493Z,8.44
2019-03-24T09:25:41.831Z,8.51
2019-03-24T09:28:12.353Z,8.15
2019-03-24T09:30:42.697Z,8.08
2019-03-24T09:33:13.411Z,7.92
2019-03-24T09:35:43.786Z,7.76
2019-03-24T09:38:14.212Z,7.94
2019-03-24T09:40:44.698Z,8.08
2019-03-24T09:43:15.219Z,8.15
2019-03-24T09:45:45.597Z,8.22
2019-03-24T09:48:15.982Z,8.03
2019-03-24T09:50:46.343Z,7.99
2019-03-24T09:53:17.148Z,8.05
2019-03-24T09:55:47.532Z,8.26
2019-03-24T09:58:19.060Z,8.09
2019-03-24T10:00:50.079Z,7.88
2019-03-24T10:03:20.404Z,8.17
2019-03-24T10:05:50.847Z,8.53
2019-03-24T10:08:22.042Z,8.72
2019-03-24T10:10:52.340Z,8.97
2019-03-24T10:13:22.676Z,9.28
2019-03-24T10:15:53.154Z,9.80
2019-03-24T10:18:23.459Z,10.26
2019-03-24T10:20:54.123Z,10.59
2019-03-24T10:23:24.500Z,10.62
2019-03-24T10:25:55.659Z,10.54
2019-03-24T10:28:32.738Z,10.58
2019-03-24T10:31:03.435Z,10.68
2019-03-24T10:33:33.887Z,10.69
2019-03-24T10:36:04.308Z,10.67
2019-03-24T10:38:34.744Z,10.75
2019-03-24T10:41:05.277Z,10.92
2019-03-24T10:43:35.653Z,11.13
2019-03-24T10:46:06.781Z,11.26
2019-03-24T10:48:37.159Z,11.33
2019-03-24T10:51:07.504Z,11.14
2019-03-24T10:53:37.981Z,11.16
2019-03-24T10:56:09.415Z,11.36
2019-03-24T10:58:39.783Z,11.27
2019-03-24T11:01:10.187Z,11.11
2019-03-24T11:03:40.790Z,10.95
2019-03-24T11:06:11.252Z,10.94
2019-03-24T11:08:42.947Z,10.89
2019-03-24T11:11:13.362Z,11.01
2019-03-24T11:13:43.740Z,11.09
2019-03-24T11:16:14.470Z,11.36
2019-03-24T11:18:44.950Z,11.50
2019-03-24T11:21:15.308Z,11.58
2019-03-24T11:23:45.859Z,11.60
2019-03-24T11:26:16.283Z,11.82
2019-03-24T11:28:46.733Z,12.30
2019-03-24T11:31:17.370Z,12.42
2019-03-24T11:33:48.608Z,12.28
2019-03-24T11:36:21.164Z,12.23
2019-03-24T11:38:55.549Z,12.23
2019-03-24T11:41:25.562Z,12.27
2019-03-24T11:43:56.619Z,12.18
2019-03-24T11:46:29.180Z,12.24
2019-03-24T11:49:00.691Z,12.29
2019-03-24T11:51:31.635Z,12.33
2019-03-24T11:54:02.662Z,12.33
2019-03-24T11:56:33.714Z,12.37
2019-03-24T11:59:06.341Z,12.46
2019-03-24T12:01:38.436Z,12.13
2019-03-24T12:04:10.427Z,12.17
2019-03-24T12:06:41.642Z,12.16
2019-03-24T12:09:15.194Z,12.26
2019-03-24T12:11:46.670Z,12.26
2019-03-24T12:14:18.848Z,12.25
2019-03-24T12:17:09.376Z,12.12
2019-03-24T12:19:40.661Z,12.21
2019-03-24T12:22:33.557Z,12.28
2019-03-24T12:25:11.490Z,12.35
2019-03-24T12:28:12.424Z,12.42
2019-03-24T12:30:55.099Z,12.54
2019-03-24T12:33:26.790Z,12.44
2019-03-24T12:36:11.690Z,12.56
2019-03-24T12:39:01.294Z,12.55
2019-03-24T12:41:27.861Z,12.38
2019-03-24T12:44:24.988Z,12.52
2019-03-24T12:46:56.404Z,12.44
2019-03-24T12:49:32.049Z,12.40
2019-03-24T12:52:06.194Z,12.35
2019-03-24T12:54:41.782Z,12.47
2019-03-24T12:57:13.369Z,12.40
2019-03-24T12:59:45.123Z,12.18
2019-03-24T13:02:15.447Z,12.32
2019-03-24T13:04:46.292Z,12.35
2019-03-24T13:07:16.644Z,12.29
2019-03-24T13:09:47.026Z,12.20
2019-03-24T13:12:17.438Z,12.15
2019-03-24T13:14:49.449Z,12.08
2019-03-24T13:17:19.771Z,12.05
2019-03-24T13:19:50.288Z,11.93
2019-03-24T13:22:21.031Z,11.97
2019-03-24T13:24:51.619Z,12.02
2019-03-24T13:27:21.948Z,11.97
2019-03-24T13:29:53.315Z,11.89
2019-03-24T13:32:23.785Z,11.85
2019-03-24T13:34:54.600Z,11.95
2019-03-24T13:37:25.312Z,12.00
2019-03-24T13:39:55.810Z,11.79
2019-03-24T13:42:26.191Z,11.72
2019-03-24T13:44:56.656Z,11.62
2019-03-24T13:47:30.447Z,11.68
2019-03-24T13:50:00.876Z,11.80
2019-03-24T13:52:31.310Z,11.68
2019-03-24T13:55:01.848Z,11.50
2019-03-24T13:57:33.022Z,11.42
2019-03-24T14:00:03.934Z,11.35
2019-03-24T14:02:35.558Z,11.20
2019-03-24T14:05:07.495Z,11.35
2019-03-24T14:07:38.709Z,11.25
2019-03-24T14:10:09.524Z,11.28
2019-03-24T14:12:39.928Z,11.26
2019-03-24T14:15:10.512Z,11.18
2019-03-24T14:17:40.972Z,11.23
2019-03-24T14:20:11.600Z,11.33
2019-03-24T14:22:42.026Z,11.31
2019-03-24T14:25:12.591Z,11.39
2019-03-24T14:27:42.947Z,11.36
2019-03-24T14:30:27.193Z,11.38
2019-03-24T14:32:57.599Z,11.36
2019-03-24T14:35:27.997Z,11.35
2019-03-24T14:37:58.304Z,11.32
2019-03-24T14:40:28.885Z,11.39
2019-03-24T14:42:59.622Z,11.40
2019-03-24T14:45:29.963Z,11.34
2019-03-24T14:48:00.594Z,11.25
2019-03-24T14:50:30.951Z,11.18
2019-03-24T14:53:01.326Z,11.20
2019-03-24T14:55:31.706Z,11.11
2019-03-24T14:58:02.269Z,11.11
2019-03-24T15:00:37.855Z,11.13
2019-03-24T15:03:08.430Z,11.12
2019-03-24T15:05:38.908Z,11.17
2019-03-24T15:08:09.914Z,11.12
2019-03-24T15:10:40.561Z,11.24
2019-03-24T15:13:11.212Z,11.26
2019-03-24T15:15:41.661Z,11.24
2019-03-24T15:18:12.344Z,11.27
2019-03-24T15:20:42.682Z,11.34
2019-03-24T15:23:12.961Z,11.32
2019-03-24T15:25:43.340Z,11.18
2019-03-24T15:28:13.768Z,11.18
2019-03-24T15:30:44.491Z,11.12
2019-03-24T15:33:14.894Z,11.02
2019-03-24T15:35:45.329Z,11.09
2019-03-24T15:38:15.666Z,11.12
2019-03-24T15:40:49.497Z,11.19
2019-03-24T15:43:18.603Z,11.15
2019-03-24T15:45:51.168Z,11.12
2019-03-24T15:48:21.966Z,11.05
2019-03-24T15:50:52.351Z,10.99
2019-03-24T15:53:22.777Z,10.93
2019-03-24T15:55:53.078Z,10.96
2019-03-24T15:58:23.524Z,10.98
2019-03-24T16:00:54.147Z,10.98
2019-03-24T16:03:24.614Z,10.97
2019-03-24T16:05:56.407Z,10.92
2019-03-24T16:08:27.337Z,10.89
2019-03-24T16:10:57.798Z,10.86
2019-03-24T16:13:28.545Z,10.85
2019-03-24T16:15:58.994Z,10.84
2019-03-24T16:18:29.379Z,10.82
2019-03-24T16:20:59.801Z,10.76
2019-03-24T16:23:30.270Z,10.68
2019-03-24T16:26:00.856Z,10.65
2019-03-24T16:28:31.261Z,10.61
2019-03-24T16:31:01.757Z,10.53
2019-03-24T16:33:32.045Z,10.51
2019-03-24T16:36:02.704Z,10.48
2019-03-24T16:38:33.104Z,10.44
2019-03-24T16:41:03.664Z,10.37
2019-03-24T16:43:34.015Z,10.29
2019-03-24T16:46:04.307Z,10.23
2019-03-24T16:48:37.012Z,10.21
2019-03-24T16:51:06.852Z,10.15
2019-03-24T16:53:37.240Z,10.13
2019-03-24T16:56:07.690Z,10.05
2019-03-24T16:58:38.320Z,10.01
2019-03-24T17:01:08.737Z,9.95
2019-03-24T17:03:39.449Z,9.91
2019-03-24T17:06:10.313Z,9.85
2019-03-24T17:08:41.024Z,9.80
2019-03-24T17:11:11.712Z,9.76
2019-03-24T17:13:43.175Z,9.71
2019-03-24T17:16:13.642Z,9.64
2019-03-24T17:18:43.956Z,9.57
2019-03-24T17:21:14.349Z,9.50
2019-03-24T17:23:44.664Z,9.45
2019-03-24T17:26:15.090Z,9.41
2019-03-24T17:28:47.020Z,9.36
2019-03-24T17:31:18.232Z,9.31
2019-03-24T17:33:48.530Z,9.27
2019-03-24T17:36:19.173Z,9.21
2019-03-24T17:38:50.444Z,9.16
2019-03-24T17:41:21.087Z,9.10
2019-03-24T17:43:51.474Z,9.06
2019-03-24T17:46:21.829Z,9.00
2019-03-24T17:48:52.555Z,8.96
2019-03-24T17:51:22.934Z,8.89
2019-03-24T17:53:53.523Z,8.85
2019-03-24T17:56:23.973Z,8.83
2019-03-24T17:58:54.414Z,8.78
2019-03-24T18:01:25.107Z,8.72
2019-03-24T18:03:55.536Z,8.69
2019-03-24T18:06:26.587Z,8.65
2019-03-24T18:08:57.055Z,8.60
2019-03-24T18:11:27.957Z,8.56
2019-03-24T18:13:58.362Z,8.50
2019-03-24T18:16:29.096Z,8.46
2019-03-24T18:19:00.577Z,8.43
2019-03-24T18:21:31.371Z,8.41
2019-03-24T18:24:01.837Z,8.39
2019-03-24T18:26:32.148Z,8.38
2019-03-24T18:29:02.571Z,8.37
2019-03-24T18:31:33.512Z,8.33
2019-03-24T18:34:03.832Z,8.27
2019-03-24T18:36:34.276Z,8.23
2019-03-24T18:39:07.628Z,8.22
2019-03-24T18:41:38.186Z,8.17
2019-03-24T18:44:08.600Z,8.12
2019-03-24T18:46:39.014Z,8.13
2019-03-24T18:49:09.503Z,8.17
2019-03-24T18:51:40.020Z,8.18
2019-03-24T18:54:10.382Z,8.19
2019-03-24T18:56:40.930Z,8.22
2019-03-24T18:59:11.520Z,8.24
2019-03-24T19:01:41.840Z,8.19
2019-03-24T19:04:12.270Z,8.14
2019-03-24T19:06:43.407Z,8.13
2019-03-24T19:09:13.831Z,8.09
2019-03-24T19:11:44.227Z,8.06
2019-03-24T19:14:14.741Z,8.02
2019-03-24T19:16:45.304Z,8.01
2019-03-24T19:19:15.594Z,7.96
2019-03-24T19:21:46.148Z,7.96
2019-03-24T19:24:16.594Z,7.92
2019-03-24T19:26:47.643Z,7.89
2019-03-24T19:29:18.368Z,7.82
2019-03-24T19:31:49.064Z,7.77
2019-03-24T19:34:19.504Z,7.71
2019-03-24T19:36:50.440Z,7.67
2019-03-24T19:39:21.004Z,7.66
2019-03-24T19:41:51.359Z,7.64
2019-03-24T19:44:21.971Z,7.58
2019-03-24T19:46:52.541Z,7.56
2019-03-24T19:49:22.920Z,7.55
2019-03-24T19:51:53.333Z,7.58
2019-03-24T19:54:23.721Z,7.65
2019-03-24T19:56:54.018Z,7.72
2019-03-24T19:59:24.461Z,7.77
2019-03-24T20:01:54.891Z,7.86
2019-03-24T20:04:25.381Z,7.94
2019-03-24T20:06:56.083Z,7.98
2019-03-24T20:09:26.773Z,8.02
2019-03-24T20:11:57.547Z,8.03
2019-03-24T20:14:27.895Z,8.07
2019-03-24T20:16:59.300Z,8.11
2019-03-24T20:19:29.725Z,8.12
2019-03-24T20:22:00.076Z,8.13
2019-03-24T20:24:30.581Z,8.15
2019-03-24T20:27:00.924Z,8.16
2019-03-24T20:29:31.386Z,8.14
2019-03-24T20:32:01.765Z,8.13
2019-03-24T20:34:32.549Z,8.11
2019-03-24T20:37:02.858Z,8.12
2019-03-24T20:39:34.680Z,8.16
2019-03-24T20:42:05.835Z,8.23
2019-03-24T20:44:36.165Z,8.27
2019-03-24T20:47:06.520Z,8.34
2019-03-24T20:49:37.074Z,8.32
2019-03-24T20:52:07.509Z,8.26
2019-03-24T20:54:37.829Z,8.19
2019-03-24T20:57:08.458Z,8.11
2019-03-24T20:59:38.983Z,8.04
2019-03-24T21:02:09.336Z,7.94
2019-03-24T21:04:40.222Z,7.92
2019-03-24T21:07:10.587Z,7.93
2019-03-24T21:09:40.993Z,7.97
2019-03-24T21:12:11.462Z,7.98
2019-03-24T21:14:41.784Z,8.00
2019-03-24T21:17:12.178Z,8.02
2019-03-24T21:19:44.891Z,7.95
2019-03-24T21:22:15.682Z,7.80
2019-03-24T21:24:46.259Z,7.68
2019-03-24T21:27:16.656Z,7.55
2019-03-24T21:29:47.104Z,7.45
2019-03-24T21:32:17.491Z,7.36
2019-03-24T21:34:47.771Z,7.30
2019-03-24T21:37:18.222Z,7.27
2019-03-24T21:39:48.796Z,7.21
2019-03-24T21:42:19.145Z,7.16
2019-03-24T21:44:49.688Z,7.09
2019-03-24T21:47:19.998Z,7.02
2019-03-24T21:49:50.331Z,7.01
2019-03-24T21:52:20.657Z,7.00
2019-03-24T21:54:51.483Z,6.99
2019-03-24T21:57:21.865Z,6.98
2019-03-24T21:59:52.233Z,6.91
2019-03-24T22:02:22.678Z,6.85
2019-03-24T22:04:55.878Z,6.80
2019-03-24T22:07:25.371Z,6.78
2019-03-24T22:09:55.785Z,6.81
2019-03-24T22:12:26.083Z,6.90
2019-03-24T22:14:56.533Z,6.96
2019-03-24T22:17:27.054Z,7.00
2019-03-24T22:19:57.702Z,7.02
2019-03-24T22:22:28.309Z,7.00
2019-03-24T22:24:58.891Z,7.01
2019-03-24T22:27:29.182Z,7.06
2019-03-24T22:29:59.552Z,7.05
2019-03-24T22:32:29.978Z,7.07
2019-03-24T22:35:00.458Z,7.03
2019-03-24T22:37:30.956Z,6.91
2019-03-24T22:40:01.293Z,6.81
2019-03-24T22:42:31.608Z,6.74
2019-03-24T22:45:01.991Z,6.67
2019-03-24T22:47:32.397Z,6.62
2019-03-24T22:50:02.725Z,6.57
2019-03-24T22:52:33.119Z,6.45
2019-03-24T22:55:03.566Z,6.63
2019-03-24T22:57:34.249Z,6.65
2019-03-24T23:00:06.978Z,6.70
2019-03-24T23:02:38.323Z,6.77
2019-03-24T23:05:09.028Z,6.77
2019-03-24T23:07:39.303Z,6.76
2019-03-24T23:10:09.772Z,6.80
2019-03-24T23:12:40.077Z,6.79
2019-03-24T23:15:10.883Z,6.76
2019-03-24T23:17:41.358Z,6.71
2019-03-24T23:20:12.013Z,6.68
2019-03-24T23:22:42.467Z,6.66
2019-03-24T23:25:13.057Z,6.57
2019-03-24T23:27:44.494Z,6.52
2019-03-24T23:30:15.086Z,6.46
2019-03-24T23:32:45.555Z,6.39
2019-03-24T23:35:16.073Z,6.32
2019-03-24T23:37:46.378Z,6.29
2019-03-24T23:40:17.109Z,6.24
2019-03-24T23:42:47.682Z,6.19
2019-03-24T23:45:18.051Z,6.15
2019-03-24T23:47:48.434Z,6.11
2019-03-24T23:50:18.898Z,6.06
2019-03-24T23:52:49.264Z,6.03
2019-03-24T23:55:19.665Z,5.96
2019-03-24T23:57:50.093Z,5.96
